createdAt,value
2017-10-29T00:01:03.375Z,99.9
2017-10-29T00:02:10.835Z,99.9
2017-10-29T00:03:18.292Z,99.9
2017-10-29T00:04:25.748Z,99.9
2017-10-29T00:05:33.205Z,99.9
2017-10-29T00:06:40.664Z,99.9
2017-10-29T00:07:48.123Z,99.9
2017-10-29T00:08:55.585Z,99.9
2017-10-29T00:10:03.060Z,99.9
2017-10-29T00:11:09.831Z,99.9
2017-10-29T00:12:16.973Z,99.9
2017-10-29T00:13:24.423Z,99.9
2017-10-29T00:14:31.885Z,99.9
2017-10-29T00:15:39.350Z,99.9
2017-10-29T00:16:46.808Z,99.9
2017-10-29T00:17:54.518Z,99.9
2017-10-29T00:19:01.986Z,99.9
2017-10-29T00:20:09.443Z,99.9
2017-10-29T00:21:16.561Z,99.9
2017-10-29T00:22:24.020Z,99.9
2017-10-29T00:23:31.483Z,99.9
2017-10-29T00:24:38.940Z,99.9
2017-10-29T00:25:46.398Z,99.9
2017-10-29T00:26:53.856Z,99.9
2017-10-29T00:28:01.314Z,99.9
2017-10-29T00:29:08.788Z,99.9
2017-10-29T00:30:16.249Z,99.9
2017-10-29T00:31:23.712Z,99.9
2017-10-29T00:32:30.831Z,99.9
2017-10-29T00:33:38.296Z,99.9
2017-10-29T00:34:45.752Z,99.9
2017-10-29T00:35:53.213Z,99.9
2017-10-29T00:37:00.669Z,99.9
2017-10-29T00:38:07.791Z,99.9
2017-10-29T00:39:15.253Z,99.9
2017-10-29T00:40:22.365Z,99.9
2017-10-29T00:41:29.821Z,99.9
2017-10-29T00:42:37.344Z,99.9
2017-10-29T00:45:21.392Z,99.9
2017-10-29T00:46:28.850Z,99.9
2017-10-29T00:47:36.307Z,99.9
2017-10-29T00:48:43.761Z,99.9
2017-10-29T00:49:51.215Z,99.9
2017-10-29T00:50:58.672Z,99.9
2017-10-29T00:52:06.126Z,99.9
2017-10-29T00:53:13.582Z,99.9
2017-10-29T00:54:21.042Z,99.9
2017-10-29T00:55:28.498Z,99.9
2017-10-29T00:56:35.959Z,99.9
2017-10-29T00:57:43.414Z,99.9
2017-10-29T00:58:50.869Z,99.9
2017-10-29T00:59:57.987Z,99.9
2017-10-29T01:01:05.444Z,99.9
2017-10-29T01:02:12.903Z,99.9
2017-10-29T01:03:20.366Z,99.9
2017-10-29T01:04:27.825Z,99.9
2017-10-29T01:05:35.286Z,99.9
2017-10-29T01:06:42.735Z,99.9
2017-10-29T01:07:50.195Z,99.9
2017-10-29T01:08:57.674Z,99.9
2017-10-29T01:10:05.132Z,99.9
2017-10-29T01:11:12.590Z,99.9
2017-10-29T01:12:20.048Z,99.9
2017-10-29T01:13:27.204Z,99.9
2017-10-29T01:14:34.662Z,99.9
2017-10-29T01:15:42.122Z,99.9
2017-10-29T01:16:49.246Z,99.9
2017-10-29T01:17:56.705Z,99.9
2017-10-29T01:19:04.161Z,99.9
2017-10-29T01:20:11.616Z,99.9
2017-10-29T01:21:19.076Z,99.9
2017-10-29T01:22:26.534Z,99.9
2017-10-29T01:23:33.993Z,99.9
2017-10-29T01:24:41.448Z,99.9
2017-10-29T01:25:48.905Z,99.9
2017-10-29T01:26:56.363Z,99.9
2017-10-29T01:28:03.821Z,99.9
2017-10-29T01:29:11.283Z,99.9
2017-10-29T01:30:18.737Z,99.9
2017-10-29T01:31:26.194Z,99.9
2017-10-29T01:32:33.653Z,99.9
2017-10-29T01:33:41.114Z,99.9
2017-10-29T01:34:48.228Z,99.9
2017-10-29T01:35:55.690Z,99.9
2017-10-29T01:37:03.144Z,99.9
2017-10-29T01:38:10.602Z,99.9
2017-10-29T01:39:18.058Z,99.9
2017-10-29T01:40:25.519Z,99.9
2017-10-29T01:41:32.636Z,99.9
2017-10-29T01:42:40.094Z,99.9
2017-10-29T01:43:47.551Z,99.9
2017-10-29T01:44:55.011Z,99.9
2017-10-29T01:46:02.467Z,99.9
2017-10-29T01:47:09.926Z,99.9
2017-10-29T01:48:17.388Z,99.9
2017-10-29T01:49:24.876Z,99.9
2017-10-29T01:50:32.341Z,99.9
2017-10-29T01:51:39.800Z,99.9
2017-10-29T01:52:47.261Z,99.9
2017-10-29T01:53:54.729Z,99.9
2017-10-29T01:55:02.200Z,99.9
2017-10-29T01:56:09.329Z,99.9
2017-10-29T01:57:16.465Z,99.9
2017-10-29T01:58:23.924Z,99.9
2017-10-29T01:59:31.385Z,99.9
2017-10-29T02:00:38.847Z,99.9
2017-10-29T02:01:46.300Z,99.9
2017-10-29T02:02:53.760Z,99.9
2017-10-29T02:04:01.218Z,99.9
2017-10-29T02:05:08.674Z,99.9
2017-10-29T02:06:16.132Z,99.9
2017-10-29T02:07:23.249Z,99.9
2017-10-29T02:08:30.708Z,99.9
2017-10-29T02:09:38.168Z,99.9
2017-10-29T02:10:45.623Z,99.9
2017-10-29T02:11:52.742Z,99.9
2017-10-29T02:13:00.199Z,99.9
2017-10-29T02:14:07.656Z,99.9
2017-10-29T02:15:15.117Z,99.9
2017-10-29T02:16:22.584Z,99.9
2017-10-29T02:17:30.041Z,99.9
2017-10-29T02:18:37.502Z,99.9
2017-10-29T02:19:44.959Z,99.9
2017-10-29T02:20:52.071Z,99.9
2017-10-29T02:21:59.537Z,99.9
2017-10-29T02:23:06.646Z,99.9
2017-10-29T02:24:13.819Z,99.9
2017-10-29T02:25:21.281Z,99.9
2017-10-29T02:26:28.740Z,99.9
2017-10-29T02:27:35.857Z,99.9
2017-10-29T02:28:42.975Z,99.9
2017-10-29T02:29:50.431Z,99.9
2017-10-29T02:30:57.551Z,99.9
2017-10-29T02:32:04.666Z,99.9
2017-10-29T02:33:11.798Z,99.9
2017-10-29T02:34:19.244Z,99.9
2017-10-29T02:35:26.706Z,99.9
2017-10-29T02:36:34.159Z,99.9
2017-10-29T02:37:41.621Z,99.9
2017-10-29T02:38:48.734Z,99.9
2017-10-29T02:39:56.194Z,99.9
2017-10-29T02:41:03.311Z,99.9
2017-10-29T02:42:10.776Z,99.9
2017-10-29T02:43:17.892Z,99.9
2017-10-29T02:44:25.349Z,99.9
2017-10-29T02:45:32.801Z,99.9
2017-10-29T02:46:40.265Z,99.9
2017-10-29T02:47:47.404Z,99.9
2017-10-29T02:48:54.815Z,99.9
2017-10-29T02:50:02.271Z,99.9
2017-10-29T02:51:09.727Z,99.9
2017-10-29T02:52:17.187Z,99.9
2017-10-29T02:53:24.645Z,99.9
2017-10-29T02:54:32.211Z,99.9
2017-10-29T02:55:39.329Z,99.9
2017-10-29T02:56:46.790Z,99.9
2017-10-29T02:57:54.248Z,99.9
2017-10-29T02:59:01.727Z,99.9
2017-10-29T03:00:08.844Z,99.9
2017-10-29T03:01:16.307Z,99.9
2017-10-29T03:02:23.761Z,99.9
2017-10-29T03:03:31.221Z,99.9
2017-10-29T03:04:38.680Z,99.9
2017-10-29T03:05:46.134Z,99.9
2017-10-29T03:06:53.252Z,99.9
2017-10-29T03:08:00.712Z,99.9
2017-10-29T03:09:08.177Z,99.9
2017-10-29T03:10:15.635Z,99.9
2017-10-29T03:11:23.093Z,99.9
2017-10-29T03:12:30.550Z,99.9
2017-10-29T03:13:38.007Z,99.9
2017-10-29T03:14:45.465Z,99.9
2017-10-29T03:15:52.924Z,99.9
2017-10-29T03:17:00.382Z,99.9
2017-10-29T03:18:07.840Z,99.9
2017-10-29T03:19:15.308Z,99.9
2017-10-29T03:20:22.417Z,99.9
2017-10-29T03:21:29.875Z,99.9
2017-10-29T03:22:37.331Z,99.9
2017-10-29T03:23:44.789Z,99.9
2017-10-29T03:24:52.265Z,99.9
2017-10-29T03:25:59.723Z,99.9
2017-10-29T03:27:07.181Z,99.9
2017-10-29T03:28:14.638Z,99.9
2017-10-29T03:29:22.134Z,99.9
2017-10-29T03:30:29.590Z,99.9
2017-10-29T03:31:37.054Z,99.9
2017-10-29T03:32:44.522Z,99.9
2017-10-29T03:33:51.982Z,99.9
2017-10-29T03:34:59.441Z,99.9
2017-10-29T03:36:06.898Z,99.9
2017-10-29T03:37:14.356Z,99.9
2017-10-29T03:38:21.817Z,99.9
2017-10-29T03:39:29.273Z,99.9
2017-10-29T03:40:36.390Z,99.9
2017-10-29T03:41:43.843Z,99.9
2017-10-29T03:42:51.308Z,99.9
2017-10-29T03:43:58.769Z,99.9
2017-10-29T03:45:06.227Z,99.9
2017-10-29T03:46:13.688Z,99.9
2017-10-29T03:47:20.458Z,99.9
2017-10-29T03:48:27.928Z,99.9
2017-10-29T03:49:35.387Z,99.9
2017-10-29T03:50:42.850Z,99.9
2017-10-29T03:51:50.310Z,99.9
2017-10-29T03:52:57.771Z,99.9
2017-10-29T03:54:05.338Z,99.9
2017-10-29T03:55:12.793Z,99.9
2017-10-29T03:56:20.252Z,99.9
2017-10-29T03:57:27.714Z,99.9
2017-10-29T03:58:35.176Z,99.9
2017-10-29T03:59:42.634Z,99.9
2017-10-29T04:00:50.097Z,99.9
2017-10-29T04:01:57.556Z,99.9
2017-10-29T04:04:27.052Z,99.9
2017-10-29T04:05:34.769Z,99.9
2017-10-29T04:06:42.234Z,99.9
2017-10-29T04:07:49.691Z,99.9
2017-10-29T04:08:57.154Z,99.9
2017-10-29T04:10:04.616Z,99.9
2017-10-29T04:11:12.072Z,99.9
2017-10-29T04:12:19.533Z,99.9
2017-10-29T04:13:27.021Z,99.9
2017-10-29T04:14:34.484Z,99.9
2017-10-29T04:15:42.190Z,99.9
2017-10-29T04:16:49.650Z,99.9
2017-10-29T04:17:57.112Z,99.9
2017-10-29T04:19:04.573Z,99.9
2017-10-29T04:20:12.036Z,99.9
2017-10-29T04:21:19.497Z,99.9
2017-10-29T04:22:26.619Z,99.9
2017-10-29T04:23:34.083Z,99.9
2017-10-29T04:24:41.547Z,99.9
2017-10-29T04:25:48.663Z,99.9
2017-10-29T04:26:56.132Z,99.9
2017-10-29T04:28:03.583Z,99.9
2017-10-29T04:29:11.041Z,99.9
2017-10-29T04:30:18.496Z,99.9
2017-10-29T04:31:25.956Z,99.9
2017-10-29T04:32:33.419Z,99.9
2017-10-29T04:33:40.879Z,99.9
2017-10-29T04:34:48.345Z,99.9
2017-10-29T04:35:55.796Z,99.9
2017-10-29T04:37:03.253Z,99.9
2017-10-29T04:38:10.717Z,99.9
2017-10-29T04:39:18.172Z,99.9
2017-10-29T04:40:25.632Z,99.9
2017-10-29T04:41:33.090Z,99.9
2017-10-29T04:42:40.551Z,99.9
2017-10-29T04:43:48.008Z,99.9
2017-10-29T04:44:55.470Z,99.9
2017-10-29T04:46:02.930Z,99.9
2017-10-29T04:47:10.394Z,99.9
2017-10-29T04:48:17.858Z,99.9
2017-10-29T04:49:25.329Z,99.9
2017-10-29T04:50:32.785Z,99.9
2017-10-29T04:51:40.246Z,99.9
2017-10-29T04:52:47.702Z,99.9
2017-10-29T04:53:55.158Z,99.9
2017-10-29T04:55:02.619Z,99.9
2017-10-29T04:56:10.076Z,99.9
2017-10-29T04:57:17.534Z,99.9
2017-10-29T04:58:25.000Z,99.9
2017-10-29T04:59:32.750Z,99.9
2017-10-29T05:00:40.210Z,99.9
2017-10-29T05:01:47.327Z,99.9
2017-10-29T05:02:54.785Z,99.9
2017-10-29T05:04:02.245Z,99.9
2017-10-29T05:05:09.725Z,99.9
2017-10-29T05:06:17.182Z,99.9
2017-10-29T05:07:24.642Z,99.9
2017-10-29T05:08:32.103Z,99.9
2017-10-29T05:09:39.564Z,99.9
2017-10-29T05:10:47.061Z,99.9
2017-10-29T05:11:54.504Z,99.9
2017-10-29T05:13:01.984Z,99.9
2017-10-29T05:14:09.446Z,99.9
2017-10-29T05:15:16.905Z,99.9
2017-10-29T05:16:24.366Z,99.9
2017-10-29T05:17:31.824Z,99.9
2017-10-29T05:18:38.940Z,99.9
2017-10-29T05:19:46.404Z,99.9
2017-10-29T05:20:53.864Z,99.9
2017-10-29T05:22:01.322Z,99.9
2017-10-29T05:23:08.776Z,99.9
2017-10-29T05:24:16.236Z,99.9
2017-10-29T05:25:23.696Z,99.9
2017-10-29T05:26:31.157Z,99.9
2017-10-29T05:27:38.615Z,99.9
2017-10-29T05:28:46.076Z,99.9
2017-10-29T05:29:53.187Z,99.9
2017-10-29T05:31:00.643Z,99.9
2017-10-29T05:32:08.098Z,99.9
2017-10-29T05:33:15.556Z,99.9
2017-10-29T05:34:22.671Z,99.9
2017-10-29T05:35:30.126Z,99.9
2017-10-29T05:36:37.245Z,99.9
2017-10-29T05:37:44.955Z,99.9
2017-10-29T05:38:52.413Z,99.9
2017-10-29T05:39:59.875Z,99.9
2017-10-29T05:41:07.335Z,99.9
2017-10-29T05:42:14.449Z,99.9
2017-10-29T05:43:22.157Z,99.9
2017-10-29T05:44:29.615Z,99.9
2017-10-29T05:45:37.076Z,99.9
2017-10-29T05:46:44.539Z,99.9
2017-10-29T05:47:51.998Z,99.9
2017-10-29T05:48:59.457Z,99.9
2017-10-29T05:50:06.931Z,99.9
2017-10-29T05:51:14.400Z,99.9
2017-10-29T05:52:21.860Z,99.9
2017-10-29T05:53:28.976Z,99.9
2017-10-29T05:54:36.095Z,99.9
2017-10-29T05:55:43.599Z,99.9
2017-10-29T05:56:51.060Z,99.9
2017-10-29T05:57:58.530Z,99.9
2017-10-29T05:59:05.993Z,99.9
2017-10-29T06:00:13.452Z,99.9
2017-10-29T06:01:20.911Z,99.9
2017-10-29T06:02:28.367Z,99.9
2017-10-29T06:03:35.827Z,99.9
2017-10-29T06:04:42.607Z,99.9
2017-10-29T06:05:50.072Z,99.9
2017-10-29T06:06:57.554Z,99.9
2017-10-29T06:08:05.014Z,99.9
2017-10-29T06:09:12.130Z,99.9
2017-10-29T06:10:19.593Z,99.9
2017-10-29T06:11:26.714Z,99.9
2017-10-29T06:12:34.164Z,99.9
2017-10-29T06:13:40.943Z,99.9
2017-10-29T06:14:48.407Z,99.9
2017-10-29T06:15:55.869Z,99.9
2017-10-29T06:17:03.630Z,99.9
2017-10-29T06:18:11.090Z,99.9
2017-10-29T06:19:18.553Z,99.9
2017-10-29T06:20:26.015Z,99.9
2017-10-29T06:21:33.134Z,99.9
2017-10-29T06:22:40.594Z,99.9
2017-10-29T06:23:47.719Z,99.9
2017-10-29T06:24:55.182Z,99.9
2017-10-29T06:26:03.451Z,99.9
2017-10-29T06:27:10.915Z,99.9
2017-10-29T06:28:18.375Z,99.9
2017-10-29T06:29:25.492Z,99.9
2017-10-29T06:30:32.949Z,99.9
2017-10-29T06:31:40.408Z,99.9
2017-10-29T06:32:47.876Z,99.9
2017-10-29T06:33:55.437Z,99.9
2017-10-29T06:35:02.900Z,99.9
2017-10-29T06:36:10.366Z,99.9
2017-10-29T06:37:17.826Z,99.9
2017-10-29T06:38:25.287Z,99.9
2017-10-29T06:39:32.420Z,99.9
2017-10-29T06:40:39.893Z,99.9
2017-10-29T06:41:47.359Z,99.9
2017-10-29T06:42:54.820Z,99.9
2017-10-29T06:44:01.935Z,99.9
2017-10-29T06:45:09.511Z,99.9
2017-10-29T06:46:16.959Z,99.9
2017-10-29T06:48:46.469Z,99.9
2017-10-29T06:49:53.930Z,99.9
2017-10-29T06:51:01.691Z,99.9
2017-10-29T06:52:09.151Z,99.9
2017-10-29T06:53:16.614Z,99.9
2017-10-29T06:54:24.079Z,99.9
2017-10-29T06:55:31.532Z,99.9
2017-10-29T06:56:38.645Z,99.9
2017-10-29T06:57:46.109Z,99.9
2017-10-29T06:58:53.575Z,99.9
2017-10-29T07:00:01.033Z,99.9
2017-10-29T07:01:08.498Z,99.9
2017-10-29T07:02:15.720Z,99.9
2017-10-29T07:03:23.176Z,99.9
2017-10-29T07:04:30.639Z,99.9
2017-10-29T07:05:37.760Z,99.9
2017-10-29T07:06:44.876Z,99.9
2017-10-29T07:07:51.993Z,99.9
2017-10-29T07:08:59.456Z,99.9
2017-10-29T07:10:06.918Z,99.9
2017-10-29T07:11:14.386Z,99.9
2017-10-29T07:12:21.829Z,99.9
2017-10-29T07:13:29.293Z,99.9
2017-10-29T07:14:36.748Z,99.9
2017-10-29T07:15:43.876Z,99.9
2017-10-29T07:16:51.340Z,99.9
2017-10-29T07:17:58.807Z,99.9
2017-10-29T07:19:06.286Z,99.9
2017-10-29T07:20:13.730Z,99.9
2017-10-29T07:21:21.195Z,99.9
2017-10-29T07:22:28.300Z,99.9
2017-10-29T07:23:35.758Z,99.9
2017-10-29T07:24:43.221Z,99.9
2017-10-29T07:25:50.686Z,99.9
2017-10-29T07:26:58.144Z,99.9
2017-10-29T07:28:05.603Z,99.9
2017-10-29T07:29:13.066Z,99.9
2017-10-29T07:30:20.533Z,99.9
2017-10-29T07:31:27.998Z,99.9
2017-10-29T07:32:35.453Z,99.9
2017-10-29T07:33:42.583Z,99.9
2017-10-29T07:34:50.048Z,99.9
2017-10-29T07:35:57.538Z,99.9
2017-10-29T07:37:04.659Z,99.9
2017-10-29T07:38:12.118Z,99.9
2017-10-29T07:39:19.581Z,99.9
2017-10-29T07:40:27.046Z,99.9
2017-10-29T07:41:34.506Z,99.9
2017-10-29T07:42:41.966Z,99.9
2017-10-29T07:43:49.425Z,99.9
2017-10-29T07:44:56.908Z,99.9
2017-10-29T07:46:04.028Z,99.9
2017-10-29T07:47:11.492Z,99.9
2017-10-29T07:48:18.954Z,99.9
2017-10-29T07:49:26.417Z,99.9
2017-10-29T07:50:33.877Z,99.9
2017-10-29T07:51:41.351Z,99.9
2017-10-29T07:52:48.815Z,99.9
2017-10-29T07:53:55.591Z,99.9
2017-10-29T07:55:02.708Z,99.9
2017-10-29T07:56:09.830Z,99.9
2017-10-29T07:57:17.295Z,99.9
2017-10-29T07:58:24.852Z,99.9
2017-10-29T07:59:31.971Z,99.9
2017-10-29T08:00:39.438Z,99.9
2017-10-29T08:01:46.899Z,99.9
2017-10-29T08:02:54.348Z,99.9
2017-10-29T08:04:01.471Z,99.9
2017-10-29T08:05:08.589Z,99.9
2017-10-29T08:06:16.052Z,99.9
2017-10-29T08:07:22.820Z,99.9
2017-10-29T08:08:30.283Z,99.9
2017-10-29T08:09:37.758Z,99.9
2017-10-29T08:10:45.218Z,99.9
2017-10-29T08:11:52.682Z,99.9
2017-10-29T08:13:00.149Z,99.9
2017-10-29T08:14:07.607Z,99.9
2017-10-29T08:15:15.071Z,99.9
2017-10-29T08:16:22.528Z,99.9
2017-10-29T08:17:29.992Z,99.9
2017-10-29T08:18:37.452Z,99.9
2017-10-29T08:19:44.908Z,99.9
2017-10-29T08:20:52.371Z,99.9
2017-10-29T08:21:59.824Z,99.9
2017-10-29T08:23:07.288Z,99.9
2017-10-29T08:24:14.745Z,99.9
2017-10-29T08:25:22.216Z,99.9
2017-10-29T08:26:29.926Z,99.9
2017-10-29T08:27:37.381Z,99.9
2017-10-29T08:28:44.841Z,99.9
2017-10-29T08:29:52.307Z,99.9
2017-10-29T08:30:59.770Z,99.9
2017-10-29T08:32:07.228Z,99.9
2017-10-29T08:33:14.693Z,99.9
2017-10-29T08:34:22.161Z,99.9
2017-10-29T08:35:29.283Z,99.9
2017-10-29T08:36:36.747Z,99.9
2017-10-29T08:37:44.202Z,99.9
2017-10-29T08:38:51.313Z,99.9
2017-10-29T08:39:58.428Z,99.9
2017-10-29T08:41:05.888Z,99.9
2017-10-29T08:42:13.349Z,99.9
2017-10-29T08:43:20.807Z,99.9
2017-10-29T08:44:28.264Z,99.9
2017-10-29T08:45:35.733Z,99.9
2017-10-29T08:46:42.851Z,99.9
2017-10-29T08:47:50.308Z,99.9
2017-10-29T08:48:57.768Z,99.9
2017-10-29T08:50:05.231Z,99.9
2017-10-29T08:51:12.698Z,99.9
2017-10-29T08:52:20.153Z,99.9
2017-10-29T08:53:27.612Z,99.9
2017-10-29T08:54:35.076Z,99.9
2017-10-29T08:55:42.539Z,99.9
2017-10-29T08:56:49.995Z,99.9
2017-10-29T08:57:57.448Z,99.9
2017-10-29T08:59:04.911Z,99.9
2017-10-29T09:00:11.692Z,99.9
2017-10-29T09:01:19.150Z,99.9
2017-10-29T09:02:26.609Z,99.9
2017-10-29T09:03:34.270Z,99.9
2017-10-29T09:04:41.732Z,99.9
2017-10-29T09:05:49.198Z,99.9
2017-10-29T09:06:56.661Z,99.9
2017-10-29T09:08:04.129Z,99.9
2017-10-29T09:09:11.597Z,99.9
2017-10-29T09:10:19.060Z,99.9
2017-10-29T09:11:26.525Z,99.9
2017-10-29T09:12:33.986Z,99.9
2017-10-29T09:13:41.445Z,99.9
2017-10-29T09:14:48.905Z,99.9
2017-10-29T09:15:56.386Z,99.9
2017-10-29T09:17:03.850Z,99.9
2017-10-29T09:18:11.309Z,99.9
2017-10-29T09:19:18.772Z,99.9
2017-10-29T09:20:26.235Z,99.9
2017-10-29T09:21:33.694Z,99.9
2017-10-29T09:22:41.154Z,99.9
2017-10-29T09:23:48.610Z,99.9
2017-10-29T09:24:56.068Z,99.9
2017-10-29T09:26:03.532Z,99.9
2017-10-29T09:27:10.990Z,99
2017-10-29T09:28:18.448Z,99.9
2017-10-29T09:29:25.910Z,99.9
2017-10-29T09:30:33.377Z,96.6
2017-10-29T09:31:40.843Z,97.6
2017-10-29T09:32:47.962Z,94.4
2017-10-29T09:33:55.419Z,95.9
2017-10-29T09:35:02.875Z,97.1
2017-10-29T09:36:10.338Z,95.7
2017-10-29T09:37:17.479Z,96.9
2017-10-29T09:38:24.937Z,96.7
2017-10-29T09:39:32.398Z,96.6
2017-10-29T09:40:39.856Z,98
2017-10-29T09:41:47.317Z,97
2017-10-29T09:42:54.775Z,97
2017-10-29T09:44:02.231Z,96.7
2017-10-29T09:45:09.693Z,96.1
2017-10-29T09:46:17.159Z,95.3
2017-10-29T09:47:24.623Z,96.8
2017-10-29T09:48:32.077Z,94.7
2017-10-29T09:49:39.541Z,95.9
2017-10-29T09:50:47.007Z,93.9
2017-10-29T09:51:54.468Z,94.5
2017-10-29T09:53:01.926Z,95.3
2017-10-29T09:54:09.633Z,94.3
2017-10-29T09:55:17.092Z,94.4
2017-10-29T09:56:24.551Z,93.8
2017-10-29T09:57:32.011Z,95
2017-10-29T09:58:39.132Z,94.6
2017-10-29T09:59:46.598Z,92.9
2017-10-29T10:00:54.063Z,93.8
2017-10-29T10:02:01.179Z,93.7
2017-10-29T10:03:08.642Z,94
2017-10-29T10:04:16.196Z,91.9
2017-10-29T10:05:23.658Z,93.3
2017-10-29T10:06:30.775Z,91.6
2017-10-29T10:07:38.247Z,92.4
2017-10-29T10:08:45.704Z,93.1
2017-10-29T10:09:53.166Z,94.2
2017-10-29T10:11:00.626Z,92.5
2017-10-29T10:12:08.089Z,93.3
2017-10-29T10:13:15.550Z,93.2
2017-10-29T10:14:23.030Z,93.9
2017-10-29T10:15:30.497Z,94.1
2017-10-29T10:16:37.610Z,94.2
2017-10-29T10:17:45.071Z,93
2017-10-29T10:18:52.197Z,91.1
2017-10-29T10:19:59.657Z,92.2
2017-10-29T10:21:07.119Z,92.6
2017-10-29T10:22:14.575Z,92.9
2017-10-29T10:23:22.040Z,91.8
2017-10-29T10:24:29.502Z,91.6
2017-10-29T10:25:36.985Z,92.6
2017-10-29T10:26:44.438Z,92.5
2017-10-29T10:27:51.906Z,91.3
2017-10-29T10:28:59.368Z,92.5
2017-10-29T10:30:06.834Z,92.4
2017-10-29T10:31:14.292Z,90.7
2017-10-29T10:32:21.783Z,92.1
2017-10-29T10:33:29.250Z,91.3
2017-10-29T10:34:36.721Z,92.1
2017-10-29T10:35:44.384Z,93.1
2017-10-29T10:36:51.843Z,92.8
2017-10-29T10:37:59.299Z,92.1
2017-10-29T10:39:06.758Z,93.1
2017-10-29T10:40:13.881Z,93
2017-10-29T10:41:21.344Z,93.1
2017-10-29T10:42:28.806Z,93.5
2017-10-29T10:43:36.267Z,94.5
2017-10-29T10:44:43.736Z,94.3
2017-10-29T10:45:51.197Z,94.6
2017-10-29T10:46:58.655Z,94.5
2017-10-29T10:48:06.121Z,95.3
2017-10-29T10:49:13.574Z,95.2
2017-10-29T10:50:21.035Z,95.9
2017-10-29T10:51:28.155Z,95.6
2017-10-29T10:52:35.619Z,95.3
2017-10-29T10:53:42.733Z,94.5
2017-10-29T10:54:50.222Z,94.6
2017-10-29T10:55:57.687Z,94.5
2017-10-29T10:57:04.799Z,93.8
2017-10-29T10:58:12.262Z,94
2017-10-29T10:59:19.386Z,92.8
2017-10-29T11:00:26.846Z,94.1
2017-10-29T11:01:34.314Z,93.4
2017-10-29T11:02:41.766Z,93.1
2017-10-29T11:03:48.888Z,93.4
2017-10-29T11:04:55.662Z,93.1
2017-10-29T11:06:03.123Z,93.3
2017-10-29T11:07:10.590Z,92.5
2017-10-29T11:08:18.053Z,92.5
2017-10-29T11:09:25.172Z,91.9
2017-10-29T11:10:32.537Z,90.9
2017-10-29T11:11:39.307Z,92
2017-10-29T11:12:46.765Z,91.3
2017-10-29T11:13:54.226Z,91.9
2017-10-29T11:15:01.690Z,91.5
2017-10-29T11:16:09.450Z,91.5
2017-10-29T11:17:16.906Z,92.7
2017-10-29T11:18:24.030Z,94.1
2017-10-29T11:19:31.150Z,90.6
2017-10-29T11:20:38.610Z,91.1
2017-10-29T11:21:46.421Z,91.9
2017-10-29T11:22:53.541Z,91.4
2017-10-29T11:24:01.003Z,92.6
2017-10-29T11:25:08.464Z,91.9
2017-10-29T11:26:15.925Z,92.8
2017-10-29T11:27:23.389Z,93.3
2017-10-29T11:28:30.849Z,93.6
2017-10-29T11:29:37.965Z,92.8
2017-10-29T11:30:45.427Z,93
2017-10-29T11:31:52.892Z,90.8
2017-10-29T11:33:00.013Z,91.2
2017-10-29T11:34:07.151Z,89.4
2017-10-29T11:35:14.609Z,90.5
2017-10-29T11:36:22.069Z,90.3
2017-10-29T11:37:29.183Z,90.9
2017-10-29T11:38:36.653Z,90
2017-10-29T11:39:44.107Z,90.2
2017-10-29T11:40:51.568Z,90
2017-10-29T11:41:59.030Z,88
2017-10-29T11:43:06.491Z,85.1
2017-10-29T11:44:13.949Z,86.1
2017-10-29T11:45:21.409Z,86.8
2017-10-29T11:46:28.872Z,86.6
2017-10-29T11:47:36.348Z,87.2
2017-10-29T11:48:43.813Z,84.9
2017-10-29T11:49:51.272Z,85.9
2017-10-29T11:50:58.058Z,88.4
2017-10-29T11:52:05.518Z,83.8
2017-10-29T11:53:12.977Z,85.2
2017-10-29T11:54:20.097Z,85.1
2017-10-29T11:55:27.863Z,84.3
2017-10-29T11:56:35.354Z,84.7
2017-10-29T11:57:42.814Z,87.2
2017-10-29T11:58:50.276Z,85.6
2017-10-29T11:59:57.738Z,83.7
2017-10-29T12:01:04.860Z,86.3
2017-10-29T12:02:12.326Z,82.7
2017-10-29T12:03:19.787Z,85.8
2017-10-29T12:04:27.249Z,82.4
2017-10-29T12:05:34.710Z,83.2
2017-10-29T12:06:42.169Z,86.1
2017-10-29T12:07:49.631Z,86
2017-10-29T12:08:57.091Z,83.6
2017-10-29T12:10:04.552Z,86.2
2017-10-29T12:11:12.012Z,84.7
2017-10-29T12:12:19.478Z,78.8
2017-10-29T12:13:26.593Z,81.3
2017-10-29T12:14:34.054Z,81.1
2017-10-29T12:15:41.511Z,80.8
2017-10-29T12:16:48.974Z,81.8
2017-10-29T12:17:56.742Z,81.1
2017-10-29T12:19:04.206Z,80.4
2017-10-29T12:20:11.670Z,81.2
2017-10-29T12:21:19.141Z,81.3
2017-10-29T12:22:26.604Z,81.9
2017-10-29T12:23:34.063Z,80.6
2017-10-29T12:24:41.521Z,82.1
2017-10-29T12:25:48.980Z,81.9
2017-10-29T12:26:56.438Z,77.3
2017-10-29T12:28:04.202Z,80.7
2017-10-29T12:29:11.670Z,80.3
2017-10-29T12:30:19.134Z,80.5
2017-10-29T12:31:26.592Z,80
2017-10-29T12:32:34.050Z,81.7
2017-10-29T12:33:41.425Z,82.1
2017-10-29T12:34:48.886Z,81.1
2017-10-29T12:35:56.001Z,81.9
2017-10-29T12:37:03.466Z,79.5
2017-10-29T12:38:10.935Z,81
2017-10-29T12:39:18.392Z,79.5
2017-10-29T12:40:25.858Z,84.1
2017-10-29T12:41:33.321Z,79.5
2017-10-29T12:42:40.781Z,79.4
2017-10-29T12:43:48.245Z,80.2
2017-10-29T12:44:55.703Z,80.4
2017-10-29T12:46:03.164Z,82.7
2017-10-29T12:47:10.626Z,80.7
2017-10-29T12:48:18.088Z,79.1
2017-10-29T12:49:25.206Z,79.9
2017-10-29T12:50:31.987Z,79.7
2017-10-29T12:51:39.112Z,80.1
2017-10-29T12:52:46.568Z,78.8
2017-10-29T12:53:54.036Z,80.4
2017-10-29T12:55:01.496Z,83.4
2017-10-29T12:56:08.963Z,80.8
2017-10-29T12:57:16.424Z,82.1
2017-10-29T12:58:23.889Z,82.9
2017-10-29T12:59:31.350Z,82.7
2017-10-29T13:00:38.813Z,84.5
2017-10-29T13:01:46.525Z,86.2
2017-10-29T13:02:53.999Z,88.4
2017-10-29T13:04:01.451Z,90.7
2017-10-29T13:05:08.913Z,92.1
2017-10-29T13:06:16.371Z,94.1
2017-10-29T13:07:23.831Z,94.8
2017-10-29T13:08:31.289Z,96
2017-10-29T13:09:38.752Z,95
2017-10-29T13:10:45.873Z,95.1
2017-10-29T13:11:53.330Z,95.9
2017-10-29T13:13:00.789Z,96.4
2017-10-29T13:14:08.254Z,96.4
2017-10-29T13:15:15.372Z,96.2
2017-10-29T13:16:22.496Z,96.2
2017-10-29T13:17:29.985Z,96.4
2017-10-29T13:18:37.443Z,96
2017-10-29T13:19:44.906Z,95.9
2017-10-29T13:20:52.031Z,95.4
2017-10-29T13:21:59.489Z,94.9
2017-10-29T13:23:06.948Z,94.7
2017-10-29T13:24:14.416Z,93.7
2017-10-29T13:25:21.883Z,93.6
2017-10-29T13:26:29.344Z,93.2
2017-10-29T13:27:36.805Z,93.4
2017-10-29T13:28:43.918Z,93.1
2017-10-29T13:29:51.378Z,93
2017-10-29T13:30:58.836Z,93.2
2017-10-29T13:32:06.317Z,93.5
2017-10-29T13:33:13.779Z,93.8
2017-10-29T13:34:21.238Z,92.6
2017-10-29T13:35:29.002Z,92.8
2017-10-29T13:36:36.464Z,93.1
2017-10-29T13:37:43.927Z,92.6
2017-10-29T13:38:51.390Z,91.9
2017-10-29T13:39:58.507Z,92.6
2017-10-29T13:41:05.967Z,92
2017-10-29T13:42:13.429Z,93.1
2017-10-29T13:43:20.887Z,92.7
2017-10-29T13:44:28.348Z,92.6
2017-10-29T13:45:35.808Z,91
2017-10-29T13:46:43.573Z,91.6
2017-10-29T13:47:51.029Z,92.5
2017-10-29T13:48:58.492Z,92.2
2017-10-29T13:50:05.950Z,92
2017-10-29T13:51:13.406Z,91.7
2017-10-29T13:52:20.869Z,90.5
2017-10-29T13:53:27.992Z,90.8
2017-10-29T13:54:35.457Z,89.8
2017-10-29T13:55:42.920Z,89.3
2017-10-29T13:56:50.377Z,88.8
2017-10-29T13:57:58.141Z,91.1
2017-10-29T13:59:05.266Z,91.5
2017-10-29T14:00:12.053Z,87.6
2017-10-29T14:01:19.520Z,88.6
2017-10-29T14:02:26.981Z,90.1
2017-10-29T14:03:34.747Z,89.4
2017-10-29T14:04:42.214Z,88
2017-10-29T14:05:49.676Z,90
2017-10-29T14:06:57.144Z,87.2
2017-10-29T14:08:04.602Z,82.4
2017-10-29T14:09:12.025Z,83.3
2017-10-29T14:10:19.488Z,86
2017-10-29T14:11:26.944Z,85.6
2017-10-29T14:12:34.410Z,87.6
2017-10-29T14:13:41.863Z,86.8
2017-10-29T14:14:49.322Z,85.7
2017-10-29T14:15:56.785Z,88.1
2017-10-29T14:17:04.244Z,89
2017-10-29T14:18:11.360Z,88.6
2017-10-29T14:20:25.551Z,86.8
2017-10-29T14:21:33.011Z,82.3
2017-10-29T14:22:40.470Z,81.9
2017-10-29T14:23:47.931Z,82.7
2017-10-29T14:24:55.391Z,83
2017-10-29T14:26:02.852Z,82.3
2017-10-29T14:27:10.319Z,82.9
2017-10-29T14:28:17.782Z,81.5
2017-10-29T14:29:25.243Z,82.4
2017-10-29T14:30:33.007Z,85
2017-10-29T14:31:40.485Z,82.5
2017-10-29T14:32:47.944Z,83.8
2017-10-29T14:33:55.065Z,84.9
2017-10-29T14:35:02.188Z,86
2017-10-29T14:36:09.610Z,85.7
2017-10-29T14:37:17.076Z,84.3
2017-10-29T14:38:24.535Z,86.9
2017-10-29T14:39:31.998Z,86.8
2017-10-29T14:40:39.459Z,86.6
2017-10-29T14:41:47.218Z,86
2017-10-29T14:42:54.704Z,86.7
2017-10-29T14:44:02.164Z,88.3
2017-10-29T14:45:09.637Z,89.9
2017-10-29T14:46:17.098Z,89.1
2017-10-29T14:47:24.211Z,90.1
2017-10-29T14:48:31.679Z,90.3
2017-10-29T14:49:39.138Z,91.2
2017-10-29T14:50:46.629Z,90.5
2017-10-29T14:51:54.089Z,90.3
2017-10-29T14:53:01.262Z,90.3
2017-10-29T14:54:08.728Z,90.6
2017-10-29T14:55:16.190Z,90.2
2017-10-29T14:56:23.652Z,89.7
2017-10-29T14:57:31.115Z,89.8
2017-10-29T14:58:38.575Z,90.9
2017-10-29T14:59:45.690Z,90.7
2017-10-29T15:00:53.157Z,91
2017-10-29T15:02:00.618Z,90.8
2017-10-29T15:03:08.080Z,90
2017-10-29T15:04:15.197Z,90.6
2017-10-29T15:05:22.655Z,90.8